createdAt,value
2017-09-08T00:00:23.194Z,25.7
2017-09-08T00:01:24.633Z,25.7
2017-09-08T00:02:26.428Z,25.7
2017-09-08T00:03:28.222Z,25.6
2017-09-08T00:04:29.360Z,25.7
2017-09-08T00:05:30.129Z,25.7
2017-09-08T00:06:32.258Z,25.7
2017-09-08T00:07:33.723Z,25.7
2017-09-08T00:08:35.517Z,25.7
2017-09-08T00:09:37.315Z,25.7
2017-09-08T00:10:39.097Z,25.6
2017-09-08T00:11:40.882Z,25.6
2017-09-08T00:12:42.343Z,25.7
2017-09-08T00:13:44.135Z,25.8
2017-09-08T00:14:46.264Z,25.7
2017-09-08T00:15:47.727Z,25.7
2017-09-08T00:16:49.520Z,25.6
2017-09-08T00:17:51.658Z,25.6
2017-09-08T00:18:53.787Z,25.7
2017-09-08T00:19:55.918Z,25.7
2017-09-08T00:20:58.046Z,25.7
2017-09-08T00:21:59.841Z,25.7
2017-09-08T00:23:01.969Z,25.6
2017-09-08T00:24:03.763Z,25.6
2017-09-08T00:25:05.221Z,25.7
2017-09-08T00:26:07.349Z,25.6
2017-09-08T00:27:08.815Z,25.7
2017-09-08T00:28:10.944Z,25.7
2017-09-08T00:29:12.741Z,25.7
2017-09-08T00:30:14.513Z,25.7
2017-09-08T00:31:16.645Z,25.6
2017-09-08T00:32:18.772Z,25.7
2017-09-08T00:33:20.899Z,25.7
2017-09-08T00:34:22.671Z,25.7
2017-09-08T00:35:24.803Z,25.7
2017-09-08T00:36:26.597Z,25.6
2017-09-08T00:37:28.391Z,25.7
2017-09-08T00:38:29.869Z,25.7
2017-09-08T00:39:31.663Z,25.7
2017-09-08T00:40:33.457Z,25.7
2017-09-08T00:41:35.249Z,25.7
2017-09-08T00:42:37.379Z,25.7
2017-09-08T00:43:39.192Z,25.7
2017-09-08T00:44:40.987Z,25.7
2017-09-08T00:45:42.761Z,25.7
2017-09-08T00:46:44.890Z,25.7
2017-09-08T00:47:47.020Z,25.7
2017-09-08T00:48:48.825Z,25.7
2017-09-08T00:49:50.263Z,25.7
2017-09-08T00:50:52.394Z,25.6
2017-09-08T00:51:54.196Z,25.7
2017-09-08T00:52:55.991Z,25.7
2017-09-08T00:53:58.122Z,25.7
2017-09-08T00:54:59.595Z,25.6
2017-09-08T00:56:01.371Z,25.6
2017-09-08T00:57:03.168Z,25.6
2017-09-08T00:58:04.962Z,25.7
2017-09-08T00:59:06.756Z,25.6
2017-09-08T01:00:08.556Z,25.6
2017-09-08T01:01:09.998Z,25.6
2017-09-08T01:02:11.796Z,25.6
2017-09-08T01:03:13.599Z,25.6
2017-09-08T01:04:15.734Z,25.7
2017-09-08T01:05:17.536Z,25.7
2017-09-08T01:06:19.333Z,25.7
2017-09-08T01:07:20.789Z,25.7
2017-09-08T01:08:22.566Z,25.7
2017-09-08T01:09:24.003Z,25.6
2017-09-08T01:10:25.462Z,25.7
2017-09-08T01:11:26.923Z,25.6
2017-09-08T01:12:29.057Z,25.7
2017-09-08T01:13:31.186Z,25.6
2017-09-08T01:14:32.977Z,25.7
2017-09-08T01:15:34.778Z,25.7
2017-09-08T01:16:36.920Z,25.6
2017-09-08T01:17:38.714Z,25.6
2017-09-08T01:18:40.845Z,25.6
2017-09-08T01:19:42.973Z,25.7
2017-09-08T01:20:44.755Z,25.6
2017-09-08T01:21:46.878Z,25.6
2017-09-08T01:22:48.675Z,25.7
2017-09-08T01:23:50.452Z,25.6
2017-09-08T01:24:52.579Z,25.6
2017-09-08T01:25:54.707Z,25.6
2017-09-08T01:26:56.503Z,25.6
2017-09-08T01:27:58.630Z,25.6
2017-09-08T01:29:00.091Z,25.6
2017-09-08T01:30:01.870Z,25.7
2017-09-08T01:31:02.982Z,25.7
2017-09-08T01:32:05.110Z,25.7
2017-09-08T01:33:06.905Z,25.6
2017-09-08T01:34:09.034Z,25.7
2017-09-08T01:35:10.827Z,25.6
2017-09-08T01:36:12.261Z,25.6
2017-09-08T01:37:14.033Z,25.6
2017-09-08T01:38:16.198Z,25.7
2017-09-08T01:39:18.329Z,25.6
2017-09-08T01:40:20.125Z,25.6
2017-09-08T01:41:22.291Z,25.6
2017-09-08T01:42:24.420Z,25.6
2017-09-08T01:43:26.194Z,25.6
2017-09-08T01:44:28.321Z,25.6
2017-09-08T01:45:30.109Z,25.6
2017-09-08T01:46:31.546Z,25.6
2017-09-08T01:47:33.360Z,25.6
2017-09-08T01:48:35.485Z,25.6
2017-09-08T01:49:36.925Z,25.5
2017-09-08T01:50:39.058Z,25.5
2017-09-08T01:51:40.854Z,25.6
2017-09-08T01:52:42.314Z,25.6
2017-09-08T01:53:44.445Z,25.6
2017-09-08T01:54:45.886Z,25.5
2017-09-08T01:55:48.018Z,25.5
2017-09-08T01:56:49.166Z,25.5
2017-09-08T01:57:50.941Z,25.5
2017-09-08T01:58:53.070Z,25.6
2017-09-08T01:59:55.200Z,25.5
2017-09-08T02:00:56.974Z,25.6
2017-09-08T02:01:59.103Z,25.6
2017-09-08T02:03:00.903Z,25.6
2017-09-08T02:04:02.705Z,25.6
2017-09-08T02:05:04.508Z,25.6
2017-09-08T02:06:06.305Z,25.6
2017-09-08T02:07:08.432Z,25.6
2017-09-08T02:08:10.225Z,25.5
2017-09-08T02:09:12.353Z,25.5
2017-09-08T02:10:13.792Z,25.5
2017-09-08T02:11:15.583Z,25.5
2017-09-08T02:12:17.375Z,25.5
2017-09-08T02:13:19.167Z,25.6
2017-09-08T02:14:21.293Z,25.5
2017-09-08T02:15:23.444Z,25.5
2017-09-08T02:16:25.232Z,25.5
2017-09-08T02:17:27.359Z,25.5
2017-09-08T02:18:29.163Z,25.5
2017-09-08T02:19:30.258Z,25.5
2017-09-08T02:20:32.387Z,25.6
2017-09-08T02:21:34.521Z,25.5
2017-09-08T02:22:36.318Z,25.5
2017-09-08T02:23:37.776Z,25.5
2017-09-08T02:24:39.905Z,25.6
2017-09-08T02:25:42.033Z,25.5
2017-09-08T02:26:43.830Z,25.5
2017-09-08T02:27:45.269Z,25.5
2017-09-08T02:28:47.041Z,25.6
2017-09-08T02:29:49.173Z,25.5
2017-09-08T02:30:50.944Z,25.5
2017-09-08T02:31:53.070Z,25.5
2017-09-08T02:32:55.225Z,25.5
2017-09-08T02:33:56.665Z,25.5
2017-09-08T02:34:58.462Z,25.5
2017-09-08T02:36:00.272Z,25.5
2017-09-08T02:37:02.401Z,25.5
2017-09-08T02:38:04.177Z,25.6
2017-09-08T02:39:06.306Z,25.5
2017-09-08T02:40:07.435Z,25.6
2017-09-08T02:41:08.872Z,25.5
2017-09-08T02:42:11.000Z,25.5
2017-09-08T02:43:12.769Z,25.5
2017-09-08T02:44:14.897Z,25.6
2017-09-08T02:45:16.692Z,25.5
2017-09-08T02:46:18.156Z,25.5
2017-09-08T02:47:19.618Z,25.5
2017-09-08T02:48:21.412Z,25.5
2017-09-08T02:49:23.207Z,25.5
2017-09-08T02:50:25.008Z,25.5
2017-09-08T02:51:26.464Z,25.4
2017-09-08T02:52:28.592Z,25.5
2017-09-08T02:53:30.722Z,25.5
2017-09-08T02:54:32.852Z,25.5
2017-09-08T02:55:34.647Z,25.5
2017-09-08T02:56:36.777Z,25.5
2017-09-08T02:57:38.584Z,25.5
2017-09-08T02:58:39.707Z,25.5
2017-09-08T02:59:41.886Z,25.4
2017-09-08T03:00:43.680Z,25.5
2017-09-08T03:01:45.815Z,25.5
2017-09-08T03:02:47.248Z,25.5
2017-09-08T03:03:49.375Z,25.5
2017-09-08T03:04:51.504Z,25.5
2017-09-08T03:05:53.633Z,25.4
2017-09-08T03:06:55.428Z,25.5
2017-09-08T03:07:57.559Z,25.5
2017-09-08T03:08:59.688Z,25.5
2017-09-08T03:10:01.127Z,25.5
2017-09-08T03:11:03.257Z,25.5
2017-09-08T03:12:04.694Z,25.5
2017-09-08T03:13:06.131Z,25.5
2017-09-08T03:14:07.572Z,25.5
2017-09-08T03:15:08.677Z,25.5
2017-09-08T03:16:10.470Z,25.5
2017-09-08T03:17:12.598Z,25.5
2017-09-08T03:18:14.728Z,25.4
2017-09-08T03:19:16.167Z,25.4
2017-09-08T03:20:17.961Z,25.5
2017-09-08T03:21:20.087Z,25.5
2017-09-08T03:22:21.898Z,25.5
2017-09-08T03:23:23.669Z,25.5
2017-09-08T03:24:25.468Z,25.4
2017-09-08T03:25:27.264Z,25.5
2017-09-08T03:26:29.059Z,25.5
2017-09-08T03:27:30.518Z,25.4
2017-09-08T03:28:31.976Z,25.5
2017-09-08T03:29:34.101Z,25.4
2017-09-08T03:30:35.561Z,25.5
2017-09-08T03:31:37.351Z,25.4
2017-09-08T03:32:39.146Z,25.4
2017-09-08T03:33:40.582Z,25.5
2017-09-08T03:34:42.022Z,25.5
2017-09-08T03:35:43.124Z,25.4
2017-09-08T03:36:44.230Z,25.5
2017-09-08T03:37:45.686Z,25.5
2017-09-08T03:38:47.481Z,25.5
2017-09-08T03:39:49.610Z,25.4
2017-09-08T03:40:51.737Z,25.4
2017-09-08T03:41:53.534Z,25.5
2017-09-08T03:42:55.664Z,25.4
2017-09-08T03:43:57.120Z,25.4
2017-09-08T03:44:58.579Z,25.5
2017-09-08T03:46:00.707Z,25.5
2017-09-08T03:47:02.156Z,25.5
2017-09-08T03:48:03.613Z,25.4
2017-09-08T03:49:05.071Z,25.4
2017-09-08T03:50:06.844Z,25.4
2017-09-08T03:51:08.638Z,25.4
2017-09-08T03:52:10.466Z,25.4
2017-09-08T03:53:11.567Z,25.4
2017-09-08T03:54:13.006Z,25.4
2017-09-08T03:55:14.442Z,25.5
2017-09-08T03:56:16.235Z,25.5
2017-09-08T03:57:17.694Z,25.5
2017-09-08T03:58:19.825Z,25.5
2017-09-08T03:59:21.627Z,25.5
2017-09-08T04:00:23.757Z,25.4
2017-09-08T04:01:25.911Z,25.5
2017-09-08T04:02:27.686Z,25.4
2017-09-08T04:03:29.815Z,25.5
2017-09-08T04:04:30.917Z,25.4
2017-09-08T04:05:32.376Z,25.4
2017-09-08T04:06:33.478Z,25.4
2017-09-08T04:07:35.270Z,25.5
2017-09-08T04:08:37.399Z,25.3
2017-09-08T04:09:38.856Z,25.5
2017-09-08T04:10:40.627Z,25.4
2017-09-08T04:11:42.083Z,25.4
2017-09-08T04:12:43.854Z,25.5
2017-09-08T04:13:45.293Z,25.5
2017-09-08T04:14:46.754Z,25.4
2017-09-08T04:15:48.529Z,25.5
2017-09-08T04:16:50.656Z,25.4
2017-09-08T04:17:52.785Z,25.5
2017-09-08T04:18:54.579Z,25.4
2017-09-08T04:19:56.371Z,25.4
2017-09-08T04:20:58.142Z,25.5
2017-09-08T04:21:59.579Z,25.4
2017-09-08T04:23:01.374Z,25.4
2017-09-08T04:24:02.813Z,25.5
2017-09-08T04:25:04.943Z,25.4
2017-09-08T04:26:06.412Z,25.4
2017-09-08T04:27:08.541Z,25.4
2017-09-08T04:28:10.688Z,25.4
2017-09-08T04:29:12.131Z,25.4
2017-09-08T04:30:13.921Z,25.4
2017-09-08T04:31:15.701Z,25.4
2017-09-08T04:32:17.824Z,25.4
2017-09-08T04:33:19.954Z,25.5
2017-09-08T04:34:21.750Z,25.5
2017-09-08T04:35:23.885Z,25.4
2017-09-08T04:36:25.679Z,25.4
2017-09-08T04:37:26.783Z,25.4
2017-09-08T04:38:28.579Z,25.4
2017-09-08T04:39:30.708Z,25.4
2017-09-08T04:40:32.505Z,25.4
2017-09-08T04:41:34.635Z,25.4
2017-09-08T04:42:36.081Z,25.3
2017-09-08T04:43:38.207Z,25.4
2017-09-08T04:44:39.644Z,25.4
2017-09-08T04:45:40.749Z,25.4
2017-09-08T04:46:41.880Z,25.4
2017-09-08T04:47:43.342Z,25.4
2017-09-08T04:48:45.135Z,25.4
2017-09-08T04:49:46.929Z,25.4
2017-09-08T04:50:48.703Z,25.3
2017-09-08T04:51:50.139Z,25.4
2017-09-08T04:52:51.602Z,25.4
2017-09-08T04:53:53.731Z,25.4
2017-09-08T04:54:55.197Z,25.4
2017-09-08T04:55:57.326Z,25.4
2017-09-08T04:56:59.456Z,25.4
2017-09-08T04:58:01.254Z,25.5
2017-09-08T04:59:03.387Z,25.4
2017-09-08T05:00:05.516Z,25.4
2017-09-08T05:01:07.313Z,25.4
2017-09-08T05:02:09.445Z,25.4
2017-09-08T05:03:11.242Z,25.4
2017-09-08T05:04:13.041Z,25.4
2017-09-08T05:05:14.834Z,25.4
2017-09-08T05:06:16.963Z,25.5
2017-09-08T05:07:18.739Z,25.4
2017-09-08T05:08:20.201Z,25.4
2017-09-08T05:09:21.994Z,25.4
2017-09-08T05:10:23.100Z,25.4
2017-09-08T05:11:24.893Z,25.4
2017-09-08T05:12:27.023Z,25.5
2017-09-08T05:13:28.814Z,25.4
2017-09-08T05:14:30.616Z,25.5
2017-09-08T05:15:32.743Z,25.5
2017-09-08T05:16:34.922Z,25.4
2017-09-08T05:17:36.386Z,25.4
2017-09-08T05:18:38.180Z,25.5
2017-09-08T05:19:39.953Z,25.4
2017-09-08T05:20:41.057Z,25.4
2017-09-08T05:21:42.849Z,25.5
2017-09-08T05:22:44.986Z,25.5
2017-09-08T05:23:46.453Z,25.5
2017-09-08T05:24:48.586Z,25.5
2017-09-08T05:25:50.044Z,25.4
2017-09-08T05:26:51.817Z,25.5
2017-09-08T05:27:53.612Z,25.4
2017-09-08T05:28:54.717Z,25.5
2017-09-08T05:29:56.848Z,25.5
2017-09-08T05:30:58.619Z,25.5
2017-09-08T05:32:00.415Z,25.4
2017-09-08T05:33:01.877Z,25.4
2017-09-08T05:34:03.317Z,25.4
2017-09-08T05:35:05.112Z,25.4
2017-09-08T05:36:06.560Z,25.5
2017-09-08T05:37:07.997Z,25.5
2017-09-08T05:38:09.459Z,25.5
2017-09-08T05:39:11.252Z,25.4
2017-09-08T05:40:13.380Z,25.4
2017-09-08T05:41:14.845Z,25.5
2017-09-08T05:42:16.973Z,25.4
2017-09-08T05:43:18.766Z,25.5
2017-09-08T05:44:20.562Z,25.5
2017-09-08T05:45:22.332Z,25.5
2017-09-08T05:46:24.132Z,25.5
2017-09-08T05:47:25.903Z,25.4
2017-09-08T05:48:27.700Z,25.4
2017-09-08T05:49:29.157Z,25.4
2017-09-08T05:50:30.931Z,25.3
2017-09-08T05:51:32.372Z,25.4
2017-09-08T05:52:34.501Z,25.4
2017-09-08T05:53:36.651Z,25.4
2017-09-08T05:54:38.087Z,25.4
2017-09-08T05:55:39.186Z,25.4
2017-09-08T05:56:40.644Z,25.5
2017-09-08T05:57:42.429Z,25.4
2017-09-08T05:58:44.228Z,25.4
2017-09-08T05:59:46.033Z,25.4
2017-09-08T06:00:47.824Z,25.4
2017-09-08T06:01:49.957Z,25.5
2017-09-08T06:02:52.088Z,25.5
2017-09-08T06:03:53.883Z,25.4
2017-09-08T06:04:54.992Z,25.5
2017-09-08T06:05:57.128Z,25.5
2017-09-08T06:06:58.926Z,25.4
2017-09-08T06:08:00.726Z,25.5
2017-09-08T06:09:02.524Z,25.5
2017-09-08T06:10:04.321Z,25.4
2017-09-08T06:11:06.121Z,25.5
2017-09-08T06:12:08.264Z,25.4
2017-09-08T06:13:09.790Z,25.5
2017-09-08T06:14:11.927Z,25.5
2017-09-08T06:15:13.722Z,25.5
2017-09-08T06:16:15.190Z,25.5
2017-09-08T06:17:16.988Z,25.5
2017-09-08T06:18:18.431Z,25.5
2017-09-08T06:19:20.231Z,25.5
2017-09-08T06:20:22.028Z,25.5
2017-09-08T06:21:23.857Z,25.5
2017-09-08T06:22:25.321Z,25.5
2017-09-08T06:23:26.788Z,25.5
2017-09-08T06:24:28.574Z,25.5
2017-09-08T06:25:30.089Z,25.5
2017-09-08T06:26:31.895Z,25.5
2017-09-08T06:27:33.355Z,25.5
2017-09-08T06:28:34.846Z,25.6
2017-09-08T06:29:35.957Z,25.6
2017-09-08T06:30:37.753Z,25.6
2017-09-08T06:31:39.547Z,25.5
2017-09-08T06:32:41.328Z,25.6
2017-09-08T06:33:43.467Z,25.6
2017-09-08T06:34:45.259Z,25.6
2017-09-08T06:35:47.045Z,25.6
2017-09-08T06:36:48.483Z,25.6
2017-09-08T06:37:49.908Z,25.6
2017-09-08T06:38:51.704Z,25.6
2017-09-08T06:39:53.142Z,25.6
2017-09-08T06:40:55.276Z,25.7
2017-09-08T06:41:57.075Z,25.6
2017-09-08T06:42:58.909Z,25.6
2017-09-08T06:44:01.303Z,25.7
2017-09-08T06:45:03.107Z,25.7
2017-09-08T06:46:04.907Z,25.6
2017-09-08T06:47:06.714Z,25.7
2017-09-08T06:48:08.489Z,25.7
2017-09-08T06:49:10.387Z,25.7
2017-09-08T06:50:12.520Z,25.7
2017-09-08T06:51:13.969Z,25.6
2017-09-08T06:52:16.106Z,25.7
2017-09-08T06:53:17.556Z,25.7
2017-09-08T06:54:19.021Z,25.8
2017-09-08T06:55:21.153Z,25.8
2017-09-08T06:56:22.262Z,25.7
2017-09-08T06:57:24.400Z,25.8
2017-09-08T06:58:26.196Z,25.8
2017-09-08T06:59:28.437Z,25.8
2017-09-08T07:00:30.219Z,25.8
2017-09-08T07:01:32.353Z,25.9
2017-09-08T07:02:34.153Z,25.8
2017-09-08T07:03:35.603Z,25.8
2017-09-08T07:04:37.408Z,25.9
2017-09-08T07:05:39.209Z,25.8
2017-09-08T07:06:41.342Z,25.8
2017-09-08T07:07:42.449Z,25.9
2017-09-08T07:08:44.296Z,25.8
2017-09-08T07:09:46.368Z,25.9
2017-09-08T07:10:47.479Z,25.9
2017-09-08T07:11:48.942Z,25.9
2017-09-08T07:12:50.047Z,25.9
2017-09-08T07:13:51.527Z,25.9
2017-09-08T07:14:53.664Z,25.9
2017-09-08T07:15:55.465Z,25.9
2017-09-08T07:16:57.332Z,25.9
2017-09-08T07:17:59.159Z,25.9
2017-09-08T07:19:00.982Z,25.9
2017-09-08T07:20:02.779Z,25.9
2017-09-08T07:21:04.908Z,25.9
2017-09-08T07:22:06.354Z,25.9
2017-09-08T07:23:07.800Z,25.9
2017-09-08T07:24:09.937Z,25.9
2017-09-08T07:25:11.408Z,25.9
2017-09-08T07:26:13.230Z,25.9
2017-09-08T07:27:14.720Z,25.9
2017-09-08T07:28:16.517Z,25.9
2017-09-08T07:29:18.321Z,25.9
2017-09-08T07:30:20.503Z,25.9
2017-09-08T07:31:22.278Z,25.9
2017-09-08T07:32:23.716Z,26
2017-09-08T07:33:25.183Z,25.9
2017-09-08T07:34:26.628Z,25.9
2017-09-08T07:35:28.440Z,26
2017-09-08T07:36:30.564Z,25.9
2017-09-08T07:37:32.001Z,25.9
2017-09-08T07:38:33.444Z,25.9
2017-09-08T07:39:35.245Z,25.9
2017-09-08T07:40:37.382Z,25.9
2017-09-08T07:41:39.181Z,25.9
2017-09-08T07:42:40.979Z,26
2017-09-08T07:43:42.780Z,26
2017-09-08T07:44:44.247Z,26
2017-09-08T07:45:45.400Z,26
2017-09-08T07:46:47.532Z,26
2017-09-08T07:47:49.328Z,25.9
2017-09-08T07:48:50.793Z,26
2017-09-08T07:49:52.577Z,26
2017-09-08T07:50:54.448Z,26
2017-09-08T07:51:55.911Z,26
2017-09-08T07:52:58.044Z,26
2017-09-08T07:53:59.502Z,26
2017-09-08T07:55:01.632Z,26
2017-09-08T07:56:03.069Z,26
2017-09-08T07:57:04.846Z,26
2017-09-08T07:58:06.976Z,26
2017-09-08T07:59:08.081Z,26
2017-09-08T08:00:09.542Z,26
2017-09-08T08:01:10.650Z,26
2017-09-08T08:02:12.452Z,26
2017-09-08T08:03:14.239Z,26
2017-09-08T08:04:15.701Z,26
2017-09-08T08:05:17.165Z,26
2017-09-08T08:06:18.774Z,26
2017-09-08T08:07:20.567Z,26
2017-09-08T08:08:22.344Z,26
2017-09-08T08:09:24.139Z,26
2017-09-08T08:10:25.577Z,26
2017-09-08T08:11:27.710Z,26
2017-09-08T08:12:29.502Z,26
2017-09-08T08:13:31.630Z,26
2017-09-08T08:14:33.760Z,26.1
2017-09-08T08:15:35.554Z,26
2017-09-08T08:16:37.684Z,26.1
2017-09-08T08:17:39.479Z,26.1
2017-09-08T08:18:41.346Z,26.1
2017-09-08T08:19:42.454Z,26
2017-09-08T08:20:44.585Z,26
2017-09-08T08:21:46.048Z,26.1
2017-09-08T08:22:47.508Z,26.1
2017-09-08T08:23:48.669Z,26.1
2017-09-08T08:24:49.774Z,26
2017-09-08T08:25:51.546Z,26
2017-09-08T08:26:52.673Z,26
2017-09-08T08:27:54.132Z,26
2017-09-08T08:28:56.417Z,26
2017-09-08T08:29:57.518Z,26
2017-09-08T08:30:58.979Z,26
2017-09-08T08:32:00.108Z,26
2017-09-08T08:33:01.210Z,26
2017-09-08T08:34:02.985Z,26.1
2017-09-08T08:35:04.779Z,26
2017-09-08T08:36:06.574Z,26.1
2017-09-08T08:37:08.807Z,26.1
2017-09-08T08:38:10.606Z,26
2017-09-08T08:39:11.734Z,26
2017-09-08T08:40:12.840Z,26
2017-09-08T08:41:14.634Z,26.1
2017-09-08T08:42:16.079Z,26.1
2017-09-08T08:43:17.876Z,26.1
2017-09-08T08:44:19.644Z,26
2017-09-08T08:45:21.441Z,26.1
2017-09-08T08:46:23.573Z,26.2
2017-09-08T08:47:25.705Z,26.1
2017-09-08T08:48:27.505Z,26
2017-09-08T08:49:28.942Z,26.1
2017-09-08T08:50:30.046Z,26
2017-09-08T08:51:32.176Z,26.1
2017-09-08T08:52:33.303Z,26
2017-09-08T08:53:35.100Z,26
2017-09-08T08:54:36.543Z,26.1
2017-09-08T08:55:38.316Z,26.1
2017-09-08T08:56:40.112Z,26.1
2017-09-08T08:57:41.890Z,26
2017-09-08T08:58:43.351Z,26
2017-09-08T08:59:45.146Z,26
2017-09-08T09:00:46.608Z,26.1
2017-09-08T09:01:48.389Z,26
2017-09-08T09:02:50.192Z,26.1
2017-09-08T09:03:51.963Z,26
2017-09-08T09:04:54.091Z,26.1
2017-09-08T09:05:55.528Z,26.1
2017-09-08T09:06:56.687Z,26.1
2017-09-08T09:07:58.819Z,26
2017-09-08T09:09:00.614Z,26.1
2017-09-08T09:10:01.740Z,26.1
2017-09-08T09:11:03.870Z,26.1
2017-09-08T09:12:05.331Z,26.1
2017-09-08T09:13:07.127Z,26.1
2017-09-08T09:14:08.920Z,26
2017-09-08T09:15:10.380Z,26.1
2017-09-08T09:16:12.172Z,26.1
2017-09-08T09:17:13.607Z,26.1
2017-09-08T09:18:15.095Z,26.1
2017-09-08T09:19:16.196Z,26.1
2017-09-08T09:20:18.331Z,26
2017-09-08T09:21:20.465Z,26.1
2017-09-08T09:22:22.259Z,26.1
2017-09-08T09:23:24.030Z,26.1
2017-09-08T09:24:25.826Z,26.1
2017-09-08T09:25:27.286Z,26.1
2017-09-08T09:26:29.421Z,26.1
2017-09-08T09:27:31.218Z,26.2
2017-09-08T09:28:32.657Z,26.1
2017-09-08T09:29:34.456Z,26.2
2017-09-08T09:30:36.255Z,26.1
2017-09-08T09:31:38.055Z,26.1
2017-09-08T09:32:40.185Z,26.2
2017-09-08T09:33:41.679Z,26.2
2017-09-08T09:34:43.477Z,26.1
2017-09-08T09:35:44.920Z,26.2
2017-09-08T09:36:47.053Z,26.1
2017-09-08T09:37:48.851Z,26.2
2017-09-08T09:38:50.978Z,26.2
2017-09-08T09:39:52.757Z,26.2
2017-09-08T09:40:54.887Z,26.2
2017-09-08T09:41:57.018Z,26.1
2017-09-08T09:42:58.461Z,26.2
2017-09-08T09:44:00.240Z,26.1
2017-09-08T09:45:02.367Z,26.2
2017-09-08T09:46:04.165Z,26.2
2017-09-08T09:47:06.320Z,26.1
2017-09-08T09:48:08.096Z,26.2
2017-09-08T09:49:09.946Z,26.2
2017-09-08T09:50:11.722Z,26.1
2017-09-08T09:51:13.520Z,26.2
2017-09-08T09:52:14.960Z,26.2
2017-09-08T09:53:16.482Z,26.2
2017-09-08T09:54:18.281Z,26.1
2017-09-08T09:55:20.077Z,26.2
2017-09-08T09:56:21.875Z,26.3
2017-09-08T09:57:24.004Z,26.1
2017-09-08T09:58:26.139Z,26.2
2017-09-08T09:59:27.977Z,26.2
2017-09-08T10:00:30.105Z,26.1
2017-09-08T10:01:31.911Z,26.2
2017-09-08T10:02:34.057Z,26.2
2017-09-08T10:03:35.509Z,26.2
2017-09-08T10:04:37.634Z,26.1
2017-09-08T10:05:39.408Z,26.2
2017-09-08T10:06:41.186Z,26.2
2017-09-08T10:07:42.993Z,26.2
2017-09-08T10:08:44.771Z,26.2
2017-09-08T10:09:46.214Z,26.3
2017-09-08T10:10:47.995Z,26.2
2017-09-08T10:11:50.124Z,26.3
2017-09-08T10:12:51.568Z,26.2
2017-09-08T10:13:53.370Z,26.2
2017-09-08T10:14:55.167Z,26.2
2017-09-08T10:15:56.963Z,26.2
2017-09-08T10:16:58.757Z,26.2
2017-09-08T10:18:00.892Z,26.3
2017-09-08T10:19:02.669Z,26.3
2017-09-08T10:20:04.459Z,26.2
2017-09-08T10:21:06.592Z,26.3
2017-09-08T10:22:08.371Z,26.3
2017-09-08T10:23:10.503Z,26.3
2017-09-08T10:24:12.298Z,26.3
2017-09-08T10:25:13.735Z,26.4
2017-09-08T10:26:15.866Z,26.3
2017-09-08T10:27:17.664Z,26.3
2017-09-08T10:28:18.767Z,26.2
2017-09-08T10:29:20.567Z,26.3
2017-09-08T10:30:22.006Z,26.3
2017-09-08T10:31:23.448Z,26.2
2017-09-08T10:32:25.580Z,26.3
2017-09-08T10:33:26.687Z,26.2
2017-09-08T10:34:27.456Z,26.2
2017-09-08T10:35:29.248Z,26.3
2017-09-08T10:36:31.023Z,26.3
2017-09-08T10:37:32.485Z,26.2
2017-09-08T10:38:34.314Z,26.2
2017-09-08T10:39:36.116Z,26.3
2017-09-08T10:40:37.553Z,26.2
2017-09-08T10:41:39.347Z,26.2
2017-09-08T10:42:41.146Z,26.2
2017-09-08T10:43:42.944Z,26.2
2017-09-08T10:44:45.077Z,26.2
2017-09-08T10:45:46.879Z,26.2
2017-09-08T10:46:48.005Z,26.3
2017-09-08T10:47:50.141Z,26.2
2017-09-08T10:48:51.913Z,26.2
2017-09-08T10:49:53.708Z,26.2
2017-09-08T10:50:55.842Z,26.3
2017-09-08T10:51:57.289Z,26.3
2017-09-08T10:52:59.423Z,26.2
2017-09-08T10:54:01.216Z,26.3
2017-09-08T10:55:03.348Z,26.3
2017-09-08T10:56:04.788Z,26.2
2017-09-08T10:57:06.586Z,26.3
2017-09-08T10:58:08.713Z,26.2
2017-09-08T10:59:10.848Z,26.2
2017-09-08T11:00:12.643Z,26.2
2017-09-08T11:01:13.409Z,26.2
2017-09-08T11:02:15.184Z,26.2
2017-09-08T11:03:16.978Z,26.2
2017-09-08T11:04:19.108Z,26.2
2017-09-08T11:05:20.888Z,26.2
2017-09-08T11:06:22.325Z,26.3
2017-09-08T11:07:24.139Z,26.2
2017-09-08T11:08:26.258Z,26.2
2017-09-08T11:09:28.392Z,26.2
2017-09-08T11:10:29.856Z,26.2
2017-09-08T11:11:31.299Z,26.2
2017-09-08T11:12:32.743Z,26.2
2017-09-08T11:13:34.872Z,26.2
2017-09-08T11:14:36.353Z,26.2
2017-09-08T11:15:38.133Z,26.3
2017-09-08T11:16:40.264Z,26.2
2017-09-08T11:17:41.724Z,26.3
2017-09-08T11:18:43.519Z,26.4
2017-09-08T11:19:45.322Z,26.2
2017-09-08T11:20:47.096Z,26.3
2017-09-08T11:21:48.560Z,26.3
2017-09-08T11:22:50.696Z,26.3
2017-09-08T11:23:52.154Z,26.3
2017-09-08T11:24:53.952Z,26.2
2017-09-08T11:25:55.415Z,26.3
2017-09-08T11:26:57.213Z,26.3
2017-09-08T11:27:58.992Z,26.3
2017-09-08T11:29:00.786Z,26.2
2017-09-08T11:30:02.919Z,26.3
2017-09-08T11:31:04.045Z,26.2
2017-09-08T11:32:05.610Z,26.3
2017-09-08T11:33:07.073Z,26.3
2017-09-08T11:34:08.512Z,26.3
2017-09-08T11:35:10.644Z,26.4
2017-09-08T11:36:12.439Z,26.3
2017-09-08T11:37:13.899Z,26.3
2017-09-08T11:38:15.694Z,26.3
2017-09-08T11:39:17.496Z,26.3
2017-09-08T11:40:19.294Z,26.3
2017-09-08T11:41:21.426Z,26.3
2017-09-08T11:42:23.227Z,26.3
2017-09-08T11:43:25.364Z,26.3
2017-09-08T11:44:27.497Z,26.3
2017-09-08T11:45:28.989Z,26.3
2017-09-08T11:46:30.755Z,26.3
2017-09-08T11:47:32.885Z,26.3
2017-09-08T11:48:35.015Z,26.3
2017-09-08T11:49:36.811Z,26.3
2017-09-08T11:50:38.943Z,26.4
2017-09-08T11:51:41.074Z,26.3
2017-09-08T11:52:43.209Z,26.4
2017-09-08T11:53:44.671Z,26.4
2017-09-08T11:54:46.476Z,26.4
2017-09-08T11:55:47.936Z,26.4
2017-09-08T11:56:49.069Z,26.4
2017-09-08T11:57:50.865Z,26.4
2017-09-08T11:58:52.645Z,26.4
2017-09-08T11:59:54.778Z,26.4
2017-09-08T12:00:56.578Z,26.4
2017-09-08T12:01:58.013Z,26.4
2017-09-08T12:02:59.810Z,26.4
2017-09-08T12:04:01.945Z,26.4
2017-09-08T12:05:03.405Z,26.4
2017-09-08T12:06:05.203Z,26.4
2017-09-08T12:07:06.644Z,26.4
2017-09-08T12:08:08.437Z,26.4
2017-09-08T12:09:09.900Z,26.4
2017-09-08T12:10:11.674Z,26.4
2017-09-08T12:11:13.132Z,26.4
2017-09-08T12:12:14.263Z,26.4
2017-09-08T12:13:15.419Z,26.4
2017-09-08T12:14:17.216Z,26.5
2017-09-08T12:15:18.655Z,26.5
2017-09-08T12:16:20.116Z,26.5
2017-09-08T12:17:22.249Z,26.5
2017-09-08T12:18:24.056Z,26.5
2017-09-08T12:19:25.837Z,26.5
2017-09-08T12:20:27.634Z,26.5
2017-09-08T12:21:29.413Z,26.4
2017-09-08T12:22:30.546Z,26.5
2017-09-08T12:23:32.675Z,26.5
2017-09-08T12:24:34.139Z,26.4
2017-09-08T12:25:35.584Z,26.4
2017-09-08T12:26:36.691Z,26.5
2017-09-08T12:27:38.486Z,26.5
2017-09-08T12:28:40.287Z,26.5
2017-09-08T12:29:42.062Z,26.4
2017-09-08T12:30:43.171Z,26.5
2017-09-08T12:31:44.613Z,26.5
2017-09-08T12:32:46.741Z,26.4
2017-09-08T12:33:48.618Z,26.5
2017-09-08T12:34:50.081Z,26.4
2017-09-08T12:35:51.522Z,26.5
2017-09-08T12:36:52.969Z,26.5
2017-09-08T12:37:54.437Z,26.5
2017-09-08T12:38:55.208Z,26.4
2017-09-08T12:39:57.010Z,26.5
2017-09-08T12:40:58.789Z,26.5
2017-09-08T12:42:00.568Z,26.5
2017-09-08T12:43:02.011Z,26.4
2017-09-08T12:44:04.141Z,26.5
2017-09-08T12:45:05.939Z,26.4
2017-09-08T12:46:07.740Z,26.4
2017-09-08T12:47:09.182Z,26.4
2017-09-08T12:48:10.648Z,26.4
2017-09-08T12:49:12.419Z,26.4
2017-09-08T12:50:13.528Z,26.5
2017-09-08T12:51:15.327Z,26.5
2017-09-08T12:52:17.121Z,26.5
2017-09-08T12:53:18.562Z,26.5
2017-09-08T12:54:20.692Z,26.5
2017-09-08T12:55:22.488Z,26.6
2017-09-08T12:56:24.290Z,26.6
2017-09-08T12:57:25.397Z,26.5
2017-09-08T12:58:26.862Z,26.6
2017-09-08T12:59:29.092Z,26.5
2017-09-08T13:00:30.889Z,26.6
2017-09-08T13:01:32.662Z,26.6
2017-09-08T13:02:34.121Z,26.5
2017-09-08T13:03:35.587Z,26.6
2017-09-08T13:04:37.363Z,26.6
2017-09-08T13:05:39.159Z,26.7
2017-09-08T13:06:40.953Z,26.6
2017-09-08T13:07:42.748Z,26.6
2017-09-08T13:08:44.523Z,26.6
2017-09-08T13:09:46.321Z,26.6
2017-09-08T13:10:48.456Z,26.6
2017-09-08T13:11:49.895Z,26.6
2017-09-08T13:12:51.691Z,26.6
2017-09-08T13:13:53.489Z,26.6
2017-09-08T13:14:54.595Z,26.6
2017-09-08T13:15:56.370Z,26.5
2017-09-08T13:16:58.147Z,26.6
2017-09-08T13:18:00.279Z,26.5
2017-09-08T13:19:02.073Z,26.5
2017-09-08T13:20:03.251Z,26.5
2017-09-08T13:21:05.031Z,26.6
2017-09-08T13:22:06.472Z,26.6
2017-09-08T13:23:08.272Z,26.6
2017-09-08T13:24:09.403Z,26.6
2017-09-08T13:25:11.532Z,26.5
2017-09-08T13:26:13.659Z,26.5
2017-09-08T13:27:14.770Z,26.5
2017-09-08T13:28:16.228Z,26.5
2017-09-08T13:29:18.360Z,26.6
2017-09-08T13:30:19.464Z,26.4
2017-09-08T13:31:20.924Z,26.4
2017-09-08T13:32:22.719Z,26.5
2017-09-08T13:33:24.854Z,26.5
2017-09-08T13:34:26.300Z,26.5
2017-09-08T13:35:28.433Z,26.4
2017-09-08T13:36:29.893Z,26.5
2017-09-08T13:37:31.356Z,26.5
2017-09-08T13:38:33.128Z,26.5
2017-09-08T13:39:34.594Z,26.4
2017-09-08T13:40:36.054Z,26.4
2017-09-08T13:41:37.834Z,26.5
2017-09-08T13:42:39.631Z,26.5
2017-09-08T13:43:41.427Z,26.4
2017-09-08T13:44:43.197Z,26.5
2017-09-08T13:45:44.996Z,26.5